Time;durP1;ratioP1;P1;durP2;ratioP2;P2;SDS_P1;SDS_P2;PMS_P1;PMS_P2;Temp;Humidity;BMP_temperature;BMP_pressure;BME280_temperature;BME280_humidity;BME280_pressure;Samples;Min_cycle;Max_cycle;Signal;HPM_P1;HPM_P2
2022/07/14 00:02:23;;;;;;;6.28;4.88;;;;;;;;;;4994817;28;20049;-73
2022/07/14 00:04:49;;;;;;;5.53;4.50;;;;;;;;;;4994755;28;20047;-74
2022/07/14 00:07:15;;;;;;;7.50;5.18;;;;;;;;;;4994784;28;20046;-73
2022/07/14 00:09:41;;;;;;;5.72;4.70;;;;;;;;;;4994750;28;20077;-74
2022/07/14 00:12:08;;;;;;;5.55;4.70;;;;;;;;;;4995026;28;20038;-74
2022/07/14 00:14:34;;;;;;;6.45;5.05;;;;;;;;;;4993878;28;20046;-73
2022/07/14 00:17:00;;;;;;;6.10;5.45;;;;;;;;;;4992900;28;20088;-73
2022/07/14 00:19:27;;;;;;;5.97;5.32;;;;;;;;;;4993292;28;20054;-73
2022/07/14 00:21:54;;;;;;;5.32;4.90;;;;;;;;;;4993969;28;20038;-73
2022/07/14 00:24:20;;;;;;;5.97;5.38;;;;;;;;;;4993326;28;20042;-73
2022/07/14 00:26:46;;;;;;;5.15;4.63;;;;;;;;;;4994955;28;20068;-73
2022/07/14 00:29:12;;;;;;;6.82;5.55;;;;;;;;;;4995062;28;20046;-74
2022/07/14 00:31:38;;;;;;;6.28;5.38;;;;;;;;;;4994606;28;20043;-73
2022/07/14 00:34:05;;;;;;;6.35;4.93;;;;;;;;;;4994737;28;20050;-73
2022/07/14 00:36:31;;;;;;;5.57;5.07;;;;;;;;;;4994836;28;20042;-73
2022/07/14 00:38:57;;;;;;;6.70;5.15;;;;;;;;;;4995761;28;20057;-73
2022/07/14 00:41:23;;;;;;;6.95;5.13;;;;;;;;;;4998062;28;20038;-73
2022/07/14 00:43:50;;;;;;;6.82;5.28;;;;;;;;;;4998348;28;20050;-74
2022/07/14 00:46:16;;;;;;;5.75;5.18;;;;;;;;;;4998256;28;20038;-73
2022/07/14 00:48:42;;;;;;;6.38;5.00;;;;;;;;;;4998427;28;20493;-73
2022/07/14 00:51:08;;;;;;;5.10;4.65;;;;;;;;;;4998207;28;20069;-74
2022/07/14 00:53:35;;;;;;;5.80;5.20;;;;;;;;;;4998234;28;20049;-73
2022/07/14 00:56:01;;;;;;;5.57;4.82;;;;;;;;;;4998387;28;20144;-74
2022/07/14 00:58:27;;;;;;;7.10;5.15;;;;;;;;;;4998466;28;20481;-74
2022/07/14 01:00:53;;;;;;;5.70;5.03;;;;;;;;;;4997970;28;20038;-73
2022/07/14 01:03:19;;;;;;;6.38;5.00;;;;;;;;;;4998760;28;20077;-73
2022/07/14 01:05:45;;;;;;;4.88;4.15;;;;;;;;;;4998179;28;20129;-73
2022/07/14 01:08:11;;;;;;;5.30;4.80;;;;;;;;;;4997907;28;20042;-73
2022/07/14 01:10:37;;;;;;;7.82;4.53;;;;;;;;;;4997762;28;20485;-74
2022/07/14 01:13:05;;;;;;;6.95;4.88;;;;;;;;;;4997524;28;20543;-73
2022/07/14 01:15:31;;;;;;;5.72;4.97;;;;;;;;;;4997648;28;20058;-73
2022/07/14 01:17:57;;;;;;;5.10;4.65;;;;;;;;;;4997673;28;20042;-73
2022/07/14 01:20:24;;;;;;;5.50;4.75;;;;;;;;;;4997392;28;20489;-73
2022/07/14 01:22:50;;;;;;;5.30;4.80;;;;;;;;;;4997640;28;20038;-73
2022/07/14 01:25:18;;;;;;;5.40;4.90;;;;;;;;;;4997097;28;20100;-74
2022/07/14 01:27:44;;;;;;;7.25;4.75;;;;;;;;;;4997430;28;20037;-73
2022/07/14 01:30:11;;;;;;;5.45;4.90;;;;;;;;;;4997083;28;20050;-73
2022/07/14 01:32:37;;;;;;;6.10;4.93;;;;;;;;;;4996868;28;20497;-73
2022/07/14 01:35:04;;;;;;;6.10;4.93;;;;;;;;;;4997008;28;20050;-73
2022/07/14 01:37:30;;;;;;;5.70;5.20;;;;;;;;;;4997064;28;20520;-74
2022/07/14 01:39:56;;;;;;;5.68;4.85;;;;;;;;;;4996733;28;20127;-73
2022/07/14 01:42:22;;;;;;;5.10;4.60;;;;;;;;;;4996643;28;20449;-73
2022/07/14 01:44:48;;;;;;;6.20;5.15;;;;;;;;;;4996660;28;20146;-73
2022/07/14 01:47:15;;;;;;;5.05;4.28;;;;;;;;;;4997414;28;20038;-74
2022/07/14 01:49:41;;;;;;;7.43;4.60;;;;;;;;;;4996258;28;20046;-73
2022/07/14 01:52:07;;;;;;;5.68;4.65;;;;;;;;;;4996522;28;20501;-73
2022/07/14 01:54:33;;;;;;;4.13;3.83;;;;;;;;;;4997012;28;20054;-73
2022/07/14 01:56:59;;;;;;;5.15;4.65;;;;;;;;;;4996658;28;20038;-73
2022/07/14 01:59:26;;;;;;;4.95;4.45;;;;;;;;;;4996168;28;20136;-74
2022/07/14 02:01:52;;;;;;;6.13;4.45;;;;;;;;;;4994669;28;20042;-73
2022/07/14 02:04:19;;;;;;;5.15;4.20;;;;;;;;;;4992230;28;20046;-73
2022/07/14 02:06:45;;;;;;;6.32;5.10;;;;;;;;;;4991453;28;20046;-73
2022/07/14 02:09:12;;;;;;;8.80;4.70;;;;;;;;;;4995756;28;20054;-73
2022/07/14 02:14:23;;;;;;;4.88;4.47;;;;;;;;;;4988799;28;20041;-74
2022/07/14 02:16:49;;;;;;;5.78;4.38;;;;;;;;;;4996826;28;20501;-73
2022/07/14 02:19:16;;;;;;;5.07;4.68;;;;;;;;;;4995775;28;20053;-75
2022/07/14 02:21:42;;;;;;;5.45;4.95;;;;;;;;;;4995613;28;20034;-73
2022/07/14 02:24:09;;;;;;;6.50;4.88;;;;;;;;;;4995631;28;20038;-73
2022/07/14 02:26:36;;;;;;;5.10;4.63;;;;;;;;;;4994612;28;20042;-73
2022/07/14 02:29:02;;;;;;;9.48;5.10;;;;;;;;;;4994858;28;20472;-73
2022/07/14 02:31:28;;;;;;;7.85;4.75;;;;;;;;;;4995849;28;20093;-73
2022/07/14 02:33:55;;;;;;;5.35;4.63;;;;;;;;;;4995661;28;20456;-73
2022/07/14 02:36:21;;;;;;;5.53;4.20;;;;;;;;;;4996204;28;20038;-73
2022/07/14 02:38:47;;;;;;;5.22;4.47;;;;;;;;;;4996663;28;20069;-73
2022/07/14 02:41:13;;;;;;;6.20;4.45;;;;;;;;;;4995846;28;20041;-73
2022/07/14 02:43:39;;;;;;;5.70;4.53;;;;;;;;;;4996640;28;20057;-73
2022/07/14 02:46:05;;;;;;;5.78;4.50;;;;;;;;;;4996260;28;20039;-73
2022/07/14 02:48:32;;;;;;;6.32;4.63;;;;;;;;;;4995760;28;20485;-73
2022/07/14 02:51:01;;;;;;;6.00;5.20;;;;;;;;;;4995919;28;20061;-73
2022/07/14 02:53:28;;;;;;;5.03;4.50;;;;;;;;;;4996019;28;20046;-73
2022/07/14 02:55:55;;;;;;;5.28;4.78;;;;;;;;;;4996457;28;20038;-73
2022/07/14 02:58:21;;;;;;;5.20;4.80;;;;;;;;;;4995712;28;20092;-73
2022/07/14 03:00:48;;;;;;;6.55;4.82;;;;;;;;;;4995760;28;20069;-73
2022/07/14 03:03:14;;;;;;;5.53;5.03;;;;;;;;;;4995660;28;20125;-73
2022/07/14 03:05:40;;;;;;;5.20;4.70;;;;;;;;;;4995473;28;20069;-73
2022/07/14 03:08:06;;;;;;;5.07;4.57;;;;;;;;;;4995756;28;20129;-73
2022/07/14 03:10:32;;;;;;;5.13;4.72;;;;;;;;;;4995597;28;20125;-73
2022/07/14 03:12:58;;;;;;;5.28;4.75;;;;;;;;;;4995341;28;20465;-73
2022/07/14 03:15:25;;;;;;;4.90;4.50;;;;;;;;;;4995357;28;20058;-73
2022/07/14 03:17:51;;;;;;;5.60;5.10;;;;;;;;;;4995607;28;20049;-73
2022/07/14 03:20:17;;;;;;;8.55;5.53;;;;;;;;;;4995660;28;20053;-73
2022/07/14 03:22:43;;;;;;;6.53;4.82;;;;;;;;;;4995310;28;20489;-73
2022/07/14 03:25:09;;;;;;;5.22;4.72;;;;;;;;;;4978230;28;20394;-73
2022/07/14 03:27:36;;;;;;;6.10;5.10;;;;;;;;;;4995189;28;20144;-73
2022/07/14 03:30:03;;;;;;;5.60;4.90;;;;;;;;;;4994950;28;20050;-73
2022/07/14 03:32:29;;;;;;;6.57;4.95;;;;;;;;;;4995358;28;20042;-73
2022/07/14 03:34:55;;;;;;;5.43;4.35;;;;;;;;;;4995043;28;20050;-73
2022/07/14 03:37:21;;;;;;;6.18;4.80;;;;;;;;;;4995368;28;20042;-73
2022/07/14 03:39:47;;;;;;;5.45;5.03;;;;;;;;;;4995047;28;20464;-73
2022/07/14 03:42:13;;;;;;;6.50;5.07;;;;;;;;;;4995320;28;20042;-73
2022/07/14 03:44:40;;;;;;;8.40;4.88;;;;;;;;;;4994827;28;20054;-73
2022/07/14 03:47:06;;;;;;;5.32;4.82;;;;;;;;;;4995280;28;20093;-73
2022/07/14 03:49:32;;;;;;;5.05;4.60;;;;;;;;;;4994995;28;20493;-73
2022/07/14 03:51:58;;;;;;;7.90;4.75;;;;;;;;;;4994994;28;20062;-73
2022/07/14 03:54:24;;;;;;;5.15;4.75;;;;;;;;;;4994995;28;20047;-73
2022/07/14 03:56:50;;;;;;;6.57;4.28;;;;;;;;;;4995223;28;20043;-73
2022/07/14 03:59:16;;;;;;;4.60;4.20;;;;;;;;;;4995357;28;20096;-73
2022/07/14 04:01:42;;;;;;;6.43;4.90;;;;;;;;;;4995474;28;20145;-73
2022/07/14 04:04:09;;;;;;;5.57;4.95;;;;;;;;;;4995372;28;20508;-73
2022/07/14 04:06:35;;;;;;;6.82;4.65;;;;;;;;;;4995160;28;20049;-73
2022/07/14 04:09:01;;;;;;;4.82;4.43;;;;;;;;;;4994719;28;20563;-73
2022/07/14 04:11:28;;;;;;;6.03;5.18;;;;;;;;;;4995047;28;20030;-73
2022/07/14 04:13:54;;;;;;;6.90;5.13;;;;;;;;;;4995740;28;20513;-73
2022/07/14 04:16:20;;;;;;;5.22;4.75;;;;;;;;;;4999133;28;20057;-73
2022/07/14 04:18:46;;;;;;;5.53;4.95;;;;;;;;;;4998527;28;20038;-73
2022/07/14 04:21:12;;;;;;;4.95;4.47;;;;;;;;;;4999320;28;20046;-73
2022/07/14 04:23:39;;;;;;;6.03;4.50;;;;;;;;;;4998661;28;20041;-73
2022/07/14 04:26:05;;;;;;;4.82;4.30;;;;;;;;;;4998408;28;20489;-73
2022/07/14 04:28:32;;;;;;;4.75;4.35;;;;;;;;;;4998478;28;20125;-73
2022/07/14 04:30:58;;;;;;;5.45;4.90;;;;;;;;;;4998587;28;20528;-73
2022/07/14 04:33:24;;;;;;;5.32;4.82;;;;;;;;;;4998779;28;20049;-73
2022/07/14 04:35:51;;;;;;;4.95;4.53;;;;;;;;;;4998750;28;20100;-73
2022/07/14 04:38:17;;;;;;;4.85;4.38;;;;;;;;;;4998507;28;20042;-73
2022/07/14 04:40:47;;;;;;;6.25;4.50;;;;;;;;;;4998677;28;20057;-73
2022/07/14 04:43:13;;;;;;;5.22;4.72;;;;;;;;;;4998214;28;20034;-73
2022/07/14 04:45:39;;;;;;;4.97;4.57;;;;;;;;;;4998091;28;20042;-73
2022/07/14 04:48:05;;;;;;;4.80;4.40;;;;;;;;;;4998298;28;20038;-73
2022/07/14 04:53:17;;;;;;;5.05;4.60;;;;;;;;;;4997747;28;20528;-73
2022/07/14 04:55:43;;;;;;;4.82;4.03;;;;;;;;;;4998035;28;20045;-73
2022/07/14 04:58:10;;;;;;;6.10;4.40;;;;;;;;;;4997854;28;20173;-73
2022/07/14 05:00:36;;;;;;;4.93;4.35;;;;;;;;;;4998008;28;20065;-73
2022/07/14 05:03:03;;;;;;;4.70;4.30;;;;;;;;;;4998043;28;20042;-73
2022/07/14 05:05:29;;;;;;;4.57;4.18;;;;;;;;;;4997936;28;20050;-73
2022/07/14 05:07:55;;;;;;;4.93;4.45;;;;;;;;;;4998021;28;20042;-73
2022/07/14 05:10:22;;;;;;;7.32;4.60;;;;;;;;;;4997801;28;20137;-73
2022/07/14 05:12:48;;;;;;;6.22;4.63;;;;;;;;;;4997554;28;20036;-73
2022/07/14 05:15:14;;;;;;;4.63;4.22;;;;;;;;;;4997230;28;20094;-73
2022/07/14 05:17:40;;;;;;;4.53;4.13;;;;;;;;;;4997144;28;20485;-73
2022/07/14 05:20:06;;;;;;;4.50;4.10;;;;;;;;;;4997367;28;20058;-73
2022/07/14 05:22:36;;;;;;;5.47;4.20;;;;;;;;;;4997357;28;20165;-73
2022/07/14 05:25:05;;;;;;;6.43;3.92;;;;;;;;;;4996973;28;20046;-73
2022/07/14 05:27:31;;;;;;;4.15;3.85;;;;;;;;;;4997245;28;20046;-73
2022/07/14 05:29:57;;;;;;;4.07;3.67;;;;;;;;;;4997092;28;20049;-73
2022/07/14 05:32:24;;;;;;;6.20;3.75;;;;;;;;;;4996956;28;20097;-73
2022/07/14 05:34:50;;;;;;;4.00;3.70;;;;;;;;;;4997278;28;20051;-73
2022/07/14 05:37:16;;;;;;;4.40;3.55;;;;;;;;;;4997114;28;20050;-73
2022/07/14 05:39:42;;;;;;;4.20;3.90;;;;;;;;;;4996813;28;20046;-73
2022/07/14 05:42:08;;;;;;;3.60;3.33;;;;;;;;;;4996997;28;20046;-73
2022/07/14 05:44:35;;;;;;;3.90;3.20;;;;;;;;;;4996776;28;20371;-73
2022/07/14 05:47:02;;;;;;;4.75;3.40;;;;;;;;;;4996871;28;20065;-73
2022/07/14 05:49:28;;;;;;;3.60;3.30;;;;;;;;;;4988127;28;20533;-73
2022/07/14 05:51:54;;;;;;;4.95;3.30;;;;;;;;;;4983783;28;20088;-73
2022/07/14 05:54:20;;;;;;;4.47;2.88;;;;;;;;;;5008305;28;20041;-73
2022/07/14 05:56:46;;;;;;;4.25;3.05;;;;;;;;;;5016014;28;20100;-73
2022/07/14 05:59:13;;;;;;;2.58;2.38;;;;;;;;;;4997440;28;20068;-73
2022/07/14 06:01:39;;;;;;;4.13;2.60;;;;;;;;;;4996291;28;20042;-73
2022/07/14 06:04:05;;;;;;;4.35;2.80;;;;;;;;;;4987643;28;20046;-73
2022/07/14 06:06:31;;;;;;;3.65;2.78;;;;;;;;;;4986950;28;20039;-71
2022/07/14 06:08:58;;;;;;;11.90;2.92;;;;;;;;;;4990032;28;20044;-71
2022/07/14 06:11:24;;;;;;;3.67;2.80;;;;;;;;;;5013168;28;20037;-71
2022/07/14 06:13:50;;;;;;;3.17;2.85;;;;;;;;;;5011389;28;20540;-71
2022/07/14 06:16:16;;;;;;;3.60;3.00;;;;;;;;;;4995936;28;20061;-71
2022/07/14 06:18:42;;;;;;;4.43;3.20;;;;;;;;;;4996478;28;20042;-71
2022/07/14 06:21:09;;;;;;;3.88;2.60;;;;;;;;;;4995817;28;20046;-71
2022/07/14 06:23:36;;;;;;;3.72;2.45;;;;;;;;;;4982330;28;20043;-73
2022/07/14 06:26:14;;;;;;;3.33;2.67;;;;;;;;;;4994392;28;20041;-71
2022/07/14 06:28:41;;;;;;;3.78;2.70;;;;;;;;;;4999384;28;20038;-72
2022/07/14 06:31:07;;;;;;;2.90;2.60;;;;;;;;;;4984786;28;20061;-72
2022/07/14 06:33:35;;;;;;;4.00;2.80;;;;;;;;;;4992005;28;20112;-72
2022/07/14 06:36:01;;;;;;;3.85;2.63;;;;;;;;;;4995674;28;20079;-72
2022/07/14 06:38:27;;;;;;;2.60;2.40;;;;;;;;;;4995492;28;20048;-72
2022/07/14 06:40:53;;;;;;;3.65;2.58;;;;;;;;;;4995896;28;20096;-71
2022/07/14 06:43:19;;;;;;;3.10;2.50;;;;;;;;;;4991947;28;20370;-75
2022/07/14 06:45:45;;;;;;;2.75;2.50;;;;;;;;;;4976403;28;20046;-78
2022/07/14 06:48:12;;;;;;;4.82;3.00;;;;;;;;;;4981561;28;20035;-76
2022/07/14 06:50:38;;;;;;;2.55;2.30;;;;;;;;;;4975572;28;20050;-76
2022/07/14 06:53:04;;;;;;;3.08;2.20;;;;;;;;;;4976285;28;20089;-76
2022/07/14 06:55:30;;;;;;;3.45;2.30;;;;;;;;;;4976952;28;20125;-75
2022/07/14 06:57:56;;;;;;;3.30;2.50;;;;;;;;;;4992358;28;20049;-76
2022/07/14 07:00:22;;;;;;;3.80;2.28;;;;;;;;;;5004949;28;20048;-76
2022/07/14 07:02:49;;;;;;;2.35;2.15;;;;;;;;;;5004731;28;20049;-76
2022/07/14 07:08:00;;;;;;;3.78;3.47;;;;;;;;;;4999401;28;20045;-76
2022/07/14 07:10:26;;;;;;;7.97;7.18;;;;;;;;;;5004329;28;20038;-76
2022/07/14 07:12:53;;;;;;;3.45;3.15;;;;;;;;;;4999404;28;20169;-76
2022/07/14 07:15:19;;;;;;;3.10;2.28;;;;;;;;;;5002699;28;20133;-76
2022/07/14 07:17:45;;;;;;;3.15;2.72;;;;;;;;;;5004770;28;20045;-76
2022/07/14 07:20:12;;;;;;;2.85;2.55;;;;;;;;;;5000102;28;20049;-77
2022/07/14 07:22:38;;;;;;;4.20;2.33;;;;;;;;;;5000154;28;20049;-77
2022/07/14 07:25:08;;;;;;;2.85;2.30;;;;;;;;;;5003601;28;20076;-76
2022/07/14 07:27:35;;;;;;;3.20;2.40;;;;;;;;;;5000588;28;20041;-76
2022/07/14 07:30:01;;;;;;;2.70;2.50;;;;;;;;;;4999699;28;20169;-77
2022/07/14 07:32:28;;;;;;;2.83;2.60;;;;;;;;;;5002685;28;20046;-77
2022/07/14 07:34:54;;;;;;;3.95;2.63;;;;;;;;;;5003729;28;20117;-77
2022/07/14 07:37:21;;;;;;;2.88;2.13;;;;;;;;;;5003913;28;20052;-76
2022/07/14 07:39:47;;;;;;;4.47;2.70;;;;;;;;;;5006726;28;20123;-77
2022/07/14 07:42:14;;;;;;;5.13;2.78;;;;;;;;;;4993616;28;20046;-76
2022/07/14 07:44:40;;;;;;;3.03;2.45;;;;;;;;;;4994965;28;20077;-76
2022/07/14 07:47:06;;;;;;;2.72;2.47;;;;;;;;;;4994995;28;20043;-76
2022/07/14 07:49:32;;;;;;;2.40;2.20;;;;;;;;;;4981910;28;20053;-77
2022/07/14 07:52:01;;;;;;;2.83;2.08;;;;;;;;;;4979403;28;20047;-77
2022/07/14 07:54:28;;;;;;;2.90;2.70;;;;;;;;;;4997957;28;20466;-77
2022/07/14 07:56:55;;;;;;;2.92;2.65;;;;;;;;;;4997645;28;20038;-77
2022/07/14 07:59:22;;;;;;;3.33;2.70;;;;;;;;;;4978576;28;20043;-76
2022/07/14 08:01:48;;;;;;;3.95;2.85;;;;;;;;;;4979211;28;20097;-76
2022/07/14 08:04:15;;;;;;;2.97;2.63;;;;;;;;;;4987350;28;20050;-77
2022/07/14 08:06:41;;;;;;;3.05;2.72;;;;;;;;;;5006924;28;20046;-76
2022/07/14 08:09:11;;;;;;;4.70;2.58;;;;;;;;;;4989680;28;20034;-76
2022/07/14 08:11:38;;;;;;;6.85;2.85;;;;;;;;;;4998652;28;20054;-76
2022/07/14 08:14:04;;;;;;;4.90;2.40;;;;;;;;;;4998535;28;20047;-75
2022/07/14 08:16:30;;;;;;;4.30;2.45;;;;;;;;;;4995574;28;20062;-76
2022/07/14 08:18:56;;;;;;;3.22;2.50;;;;;;;;;;4978193;28;20041;-76
2022/07/14 08:21:23;;;;;;;3.45;2.72;;;;;;;;;;4978730;28;20070;-76
2022/07/14 08:23:50;;;;;;;6.18;2.30;;;;;;;;;;4978767;28;20050;-76
2022/07/14 08:26:17;;;;;;;3.92;2.20;;;;;;;;;;4979535;28;20039;-77
2022/07/14 08:28:43;;;;;;;2.83;2.63;;;;;;;;;;4997874;28;20090;-76
2022/07/14 08:31:09;;;;;;;4.40;2.28;;;;;;;;;;4997980;28;20141;-76
2022/07/14 08:33:36;;;;;;;3.83;2.22;;;;;;;;;;4998584;28;20077;-76
2022/07/14 08:36:02;;;;;;;5.20;2.30;;;;;;;;;;4980731;28;20170;-76
2022/07/14 08:38:28;;;;;;;2.50;2.30;;;;;;;;;;4998002;28;20120;-76
2022/07/14 08:40:54;;;;;;;2.78;2.15;;;;;;;;;;4986901;28;20042;-76
2022/07/14 08:43:20;;;;;;;4.40;2.30;;;;;;;;;;4981605;28;20544;-77
2022/07/14 08:45:47;;;;;;;4.07;2.25;;;;;;;;;;5008896;28;20042;-76
2022/07/14 08:48:14;;;;;;;3.58;2.30;;;;;;;;;;5017942;28;20457;-76
2022/07/14 08:50:44;;;;;;;3.10;2.15;;;;;;;;;;4999078;28;20046;-76
2022/07/14 08:53:12;;;;;;;2.63;2.00;;;;;;;;;;4996740;28;20054;-76
2022/07/14 08:55:38;;;;;;;3.70;2.08;;;;;;;;;;4979369;28;20042;-77
2022/07/14 08:58:04;;;;;;;3.70;2.38;;;;;;;;;;4978181;28;20046;-77
2022/07/14 09:00:32;;;;;;;2.53;2.00;;;;;;;;;;4959264;28;20054;-77
2022/07/14 09:02:58;;;;;;;5.25;2.50;;;;;;;;;;4977967;28;20045;-76
2022/07/14 09:05:37;;;;;;;4.82;2.55;;;;;;;;;;4978089;28;20050;-77
2022/07/14 09:08:09;;;;;;;2.53;2.30;;;;;;;;;;4977198;28;20125;-77
2022/07/14 09:10:35;;;;;;;5.13;2.60;;;;;;;;;;4979386;28;20045;-77
2022/07/14 09:13:10;;;;;;;2.47;2.28;;;;;;;;;;4979835;28;20057;-77
2022/07/14 09:15:46;;;;;;;3.75;2.30;;;;;;;;;;4994092;28;20081;-77
2022/07/14 09:18:25;;;;;;;3.65;2.20;;;;;;;;;;4978585;28;20035;-77
2022/07/14 09:20:53;;;;;;;2.75;2.55;;;;;;;;;;4977831;28;20047;-76
2022/07/14 09:23:29;;;;;;;2.58;2.35;;;;;;;;;;4983269;28;20513;-76
2022/07/14 09:26:14;;;;;;;4.53;2.47;;;;;;;;;;4997111;28;20050;-75
2022/07/14 09:28:42;;;;;;;3.10;2.42;;;;;;;;;;4991004;28;20045;-75
2022/07/14 09:31:21;;;;;;;5.55;2.25;;;;;;;;;;4980093;28;20430;-75
2022/07/14 09:33:47;;;;;;;2.60;2.40;;;;;;;;;;4977909;28;20050;-76
2022/07/14 09:36:23;;;;;;;2.95;2.20;;;;;;;;;;4991553;28;20078;-77
2022/07/14 09:38:59;;;;;;;3.22;2.08;;;;;;;;;;4994530;28;20050;-76
2022/07/14 09:41:26;;;;;;;4.93;2.40;;;;;;;;;;4976354;28;20413;-77
2022/07/14 09:44:07;;;;;;;2.63;2.42;;;;;;;;;;4975591;28;20042;-76
2022/07/14 09:46:54;;;;;;;4.75;2.53;;;;;;;;;;4985948;28;20045;-76
2022/07/14 09:49:27;;;;;;;3.60;2.60;;;;;;;;;;4959619;28;20052;-77
2022/07/14 09:51:57;;;;;;;4.88;2.72;;;;;;;;;;4986004;28;20058;-77
2022/07/14 09:54:49;;;;;;;3.07;2.70;;;;;;;;;;4996447;28;20117;-77
2022/07/14 09:57:15;;;;;;;4.13;2.85;;;;;;;;;;4990705;28;20575;-77
2022/07/14 09:59:58;;;;;;;4.35;3.17;;;;;;;;;;4976731;28;20150;-75
2022/07/14 10:02:26;;;;;;;3.13;2.90;;;;;;;;;;4990151;28;20077;-75
2022/07/14 10:04:56;;;;;;;6.53;3.17;;;;;;;;;;4986156;28;20069;-75
2022/07/14 10:07:31;;;;;;;4.82;3.40;;;;;;;;;;5000453;28;20035;-76
2022/07/14 10:10:05;;;;;;;3.92;3.28;;;;;;;;;;5001898;28;20125;-76
2022/07/14 10:12:34;;;;;;;3.50;3.20;;;;;;;;;;5002953;28;20066;-76
2022/07/14 10:15:06;;;;;;;4.82;3.33;;;;;;;;;;4995620;28;20086;-76
2022/07/14 10:17:35;;;;;;;3.78;3.47;;;;;;;;;;4958738;28;20049;-77
2022/07/14 10:20:02;;;;;;;5.07;3.05;;;;;;;;;;4976086;28;20393;-76
2022/07/14 10:22:30;;;;;;;3.83;3.47;;;;;;;;;;4980025;28;20073;-76
2022/07/14 10:25:09;;;;;;;6.05;3.88;;;;;;;;;;4990704;28;20046;-78
2022/07/14 10:27:38;;;;;;;6.73;3.63;;;;;;;;;;4976666;28;20042;-75
2022/07/14 10:30:08;;;;;;;3.67;3.38;;;;;;;;;;4993733;28;20050;-75
2022/07/14 10:32:51;;;;;;;6.43;3.75;;;;;;;;;;4969995;28;20077;-77
2022/07/14 10:35:33;;;;;;;4.47;3.33;;;;;;;;;;4979172;28;20039;-77
2022/07/14 10:38:21;;;;;;;;;;;;;;;;;;;;;
2022/07/14 10:41:07;;;;;;;6.15;3.88;;;;;;;;;;5007617;28;20050;-76
2022/07/14 10:43:56;;;;;;;3.85;3.55;;;;;;;;;;4979578;28;20050;-76
2022/07/14 10:46:39;;;;;;;4.57;3.78;;;;;;;;;;4981380;28;20050;-76
2022/07/14 10:49:07;;;;;;;5.38;3.60;;;;;;;;;;4995147;28;20054;-76
2022/07/14 10:51:33;;;;;;;8.05;3.90;;;;;;;;;;4973459;28;20039;-75
2022/07/14 10:54:01;;;;;;;4.15;3.75;;;;;;;;;;4993329;28;20054;-76
2022/07/14 10:56:27;;;;;;;4.38;3.53;;;;;;;;;;4992378;28;20057;-76
2022/07/14 10:59:12;;;;;;;3.90;3.60;;;;;;;;;;4993130;28;20117;-76
2022/07/14 11:01:58;;;;;;;4.15;3.75;;;;;;;;;;4994634;28;20038;-76
2022/07/14 11:04:43;;;;;;;3.83;3.53;;;;;;;;;;4994008;28;20049;-76
2022/07/14 11:07:29;;;;;;;4.45;4.15;;;;;;;;;;4997122;28;20042;-75
2022/07/14 11:09:57;;;;;;;4.18;3.78;;;;;;;;;;5013492;28;20471;-75
2022/07/14 11:12:24;;;;;;;4.47;4.10;;;;;;;;;;5014499;28;20100;-75
2022/07/14 11:14:50;;;;;;;4.75;4.07;;;;;;;;;;4995923;28;20058;-75
2022/07/14 11:17:34;;;;;;;4.88;4.18;;;;;;;;;;4993835;28;20409;-75
2022/07/14 11:20:00;;;;;;;4.45;4.05;;;;;;;;;;5011541;28;20056;-75
2022/07/14 11:22:27;;;;;;;4.47;3.83;;;;;;;;;;5014728;28;20037;-75
2022/07/14 11:24:56;;;;;;;5.07;4.20;;;;;;;;;;5015214;28;20160;-75
2022/07/14 11:27:26;;;;;;;5.38;4.20;;;;;;;;;;4999677;28;20038;-75
2022/07/14 11:29:53;;;;;;;5.85;3.90;;;;;;;;;;4975240;28;20069;-75
2022/07/14 11:32:36;;;;;;;4.38;3.97;;;;;;;;;;5005082;28;20121;-76
2022/07/14 11:38:00;;;;;;;4.28;3.70;;;;;;;;;;4978947;28;20093;-76
2022/07/14 11:40:45;;;;;;;6.03;3.78;;;;;;;;;;4987251;28;20125;-77
2022/07/14 11:43:36;;;;;;;4.40;4.00;;;;;;;;;;4974998;28;20093;-74
2022/07/14 11:46:04;;;;;;;6.68;3.88;;;;;;;;;;4987424;28;20057;-77
2022/07/14 11:48:31;;;;;;;5.30;4.07;;;;;;;;;;5001637;28;20473;-77
2022/07/14 11:51:02;;;;;;;4.88;3.92;;;;;;;;;;5004699;28;20057;-76
2022/07/14 11:53:28;;;;;;;;;;;;;;;;;;4998922;28;20073;-76
2022/07/14 11:55:55;;;;;;;4.78;4.32;;;;;;;;;;4993784;28;19910;-76
2022/07/14 11:58:24;;;;;;;9.35;4.43;;;;;;;;;;4993238;28;20506;-76
2022/07/14 12:00:55;;;;;;;4.57;4.00;;;;;;;;;;4976503;28;20046;-77
2022/07/14 12:03:21;;;;;;;6.45;4.05;;;;;;;;;;4994491;28;20042;-76
2022/07/14 12:05:52;;;;;;;4.85;4.45;;;;;;;;;;4975731;28;20065;-76
2022/07/14 12:08:18;;;;;;;;;;;;;;;;;;4993179;28;20081;-76
2022/07/14 12:10:44;;;;;;;7.70;4.20;;;;;;;;;;4992446;28;19957;-76
2022/07/14 12:13:10;;;;;;;4.68;4.28;;;;;;;;;;4993735;28;20060;-76
2022/07/14 12:15:36;;;;;;;7.85;4.20;;;;;;;;;;4994252;28;20146;-76
2022/07/14 12:18:04;;;;;;;6.57;4.00;;;;;;;;;;4994155;28;20069;-76
2022/07/14 12:20:44;;;;;;;4.50;4.20;;;;;;;;;;4993766;28;20054;-76
2022/07/14 12:23:11;;;;;;;4.97;4.03;;;;;;;;;;4993638;28;20061;-76
2022/07/14 12:25:39;;;;;;;4.93;4.40;;;;;;;;;;4992564;28;20042;-77
2022/07/14 12:28:09;;;;;;;5.50;4.05;;;;;;;;;;4993461;28;20038;-76
2022/07/14 12:30:36;;;;;;;;;;;;;;;;;;4994448;28;20050;-76
2022/07/14 12:33:03;;;;;;;4.78;4.38;;;;;;;;;;4995624;28;19914;-79
2022/07/14 12:35:29;;;;;;;4.15;3.85;;;;;;;;;;4995163;28;20117;-77
2022/07/14 12:37:55;;;;;;;7.13;4.10;;;;;;;;;;4997261;28;20034;-77
2022/07/14 12:40:22;;;;;;;3.95;3.65;;;;;;;;;;4990204;28;20046;-77
2022/07/14 12:42:48;;;;;;;4.13;3.83;;;;;;;;;;4996990;28;20031;-77
2022/07/14 12:45:15;;;;;;;4.13;3.83;;;;;;;;;;4997217;28;20046;-76
2022/07/14 12:47:50;;;;;;;4.60;4.00;;;;;;;;;;4979138;28;20489;-77
2022/07/14 12:50:23;;;;;;;4.32;4.03;;;;;;;;;;4997051;28;20526;-77
2022/07/14 12:52:53;;;;;;;4.05;3.70;;;;;;;;;;4996952;28;20077;-77
2022/07/14 12:55:44;;;;;;;4.30;4.00;;;;;;;;;;4995668;28;20038;-77
2022/07/14 12:58:10;;;;;;;;;;;;;;;;;;4996932;28;20780;-77
2022/07/14 13:00:37;;;;;;;4.07;3.67;;;;;;;;;;4996528;28;19918;-77
2022/07/14 13:03:07;;;;;;;8.10;4.32;;;;;;;;;;4996389;28;20043;-76
2022/07/14 13:05:34;;;;;;;5.53;3.78;;;;;;;;;;4996046;28;20089;-76
2022/07/14 13:08:00;;;;;;;4.43;4.03;;;;;;;;;;4996017;28;20092;-76
2022/07/14 13:10:26;;;;;;;4.82;4.03;;;;;;;;;;4997151;28;20038;-77
2022/07/14 13:12:54;;;;;;;5.40;4.00;;;;;;;;;;4997443;28;20057;-76
2022/07/14 13:15:24;;;;;;;6.90;3.97;;;;;;;;;;5000021;28;20543;-77
2022/07/14 13:17:51;;;;;;;3.97;3.67;;;;;;;;;;4999591;28;20042;-76
2022/07/14 13:20:40;;;;;;;7.78;3.70;;;;;;;;;;5001816;28;20069;-77
2022/07/14 13:23:06;;;;;;;4.05;3.75;;;;;;;;;;4988727;28;20381;-77
2022/07/14 13:25:43;;;;;;;5.05;4.10;;;;;;;;;;5000996;28;20476;-78
2022/07/14 13:28:09;;;;;;;4.93;4.05;;;;;;;;;;4996239;28;20046;-77
2022/07/14 13:30:35;;;;;;;5.50;3.75;;;;;;;;;;4995910;28;20049;-77
2022/07/14 13:33:04;;;;;;;4.47;4.10;;;;;;;;;;5002351;28;20046;-76
2022/07/14 13:35:30;;;;;;;4.32;3.92;;;;;;;;;;5008294;28;20605;-77
2022/07/14 13:37:59;;;;;;;4.20;3.90;;;;;;;;;;4982475;28;20042;-77
2022/07/14 13:40:27;;;;;;;5.38;3.97;;;;;;;;;;4979793;28;20097;-78
2022/07/14 13:42:54;;;;;;;4.30;3.95;;;;;;;;;;4978004;28;20409;-78
2022/07/14 13:45:20;;;;;;;4.00;3.70;;;;;;;;;;4978303;28;20046;-78
2022/07/14 13:47:46;;;;;;;4.03;3.60;;;;;;;;;;4995333;28;20485;-76
2022/07/14 13:52:57;;;;;;;3.35;3.15;;;;;;;;;;4995899;28;20045;-77
2022/07/14 13:55:23;;;;;;;7.68;3.13;;;;;;;;;;4994662;28;20047;-76
2022/07/14 13:57:50;;;;;;;3.00;2.80;;;;;;;;;;4979904;28;20528;-77
2022/07/14 14:00:16;;;;;;;3.40;3.10;;;;;;;;;;4999121;28;20498;-80
2022/07/14 14:05:28;;;;;;;3.60;2.55;;;;;;;;;;5000560;28;20048;-80
2022/07/14 14:07:54;;;;;;;3.50;3.20;;;;;;;;;;4981422;28;20562;-80
2022/07/14 14:10:20;;;;;;;3.47;3.17;;;;;;;;;;4985084;28;20046;-79
2022/07/14 14:12:46;;;;;;;3.67;3.05;;;;;;;;;;4994174;28;20046;-78
2022/07/14 14:15:13;;;;;;;4.90;3.13;;;;;;;;;;4992123;28;20112;-78
2022/07/14 14:17:39;;;;;;;3.13;2.83;;;;;;;;;;5002638;28;20073;-78
2022/07/14 14:20:05;;;;;;;3.17;2.88;;;;;;;;;;4991255;28;20052;-77
2022/07/14 14:22:31;;;;;;;4.00;3.55;;;;;;;;;;4969526;28;20076;-77
2022/07/14 14:24:57;;;;;;;3.42;3.10;;;;;;;;;;4994003;28;20046;-75
2022/07/14 14:27:23;;;;;;;3.30;2.92;;;;;;;;;;4993616;28;20066;-75
2022/07/14 14:29:50;;;;;;;3.78;2.88;;;;;;;;;;4980525;28;20138;-75
2022/07/14 14:32:16;;;;;;;3.47;2.65;;;;;;;;;;4991135;28;20582;-75
2022/07/14 14:34:42;;;;;;;2.80;2.60;;;;;;;;;;4983681;28;20042;-75
2022/07/14 14:37:11;;;;;;;3.30;3.00;;;;;;;;;;4998929;28;20037;-74
2022/07/14 14:39:41;;;;;;;2.95;2.75;;;;;;;;;;5000345;28;20077;-76
2022/07/14 14:42:07;;;;;;;3.08;2.63;;;;;;;;;;4989483;28;20081;-77
2022/07/14 14:44:34;;;;;;;5.38;2.80;;;;;;;;;;4993937;28;20125;-76
2022/07/14 14:47:00;;;;;;;4.97;2.80;;;;;;;;;;4994072;28;20103;-75
2022/07/14 14:49:28;;;;;;;3.63;2.88;;;;;;;;;;4993885;28;20058;-77
2022/07/14 14:51:55;;;;;;;4.10;2.60;;;;;;;;;;4994644;28;20038;-77
2022/07/14 14:54:22;;;;;;;4.30;3.22;;;;;;;;;;4994075;28;20045;-76
2022/07/14 14:56:48;;;;;;;4.90;2.60;;;;;;;;;;4994080;28;20418;-77
2022/07/14 14:59:14;;;;;;;3.00;2.70;;;;;;;;;;4991263;28;20053;-76
2022/07/14 15:01:40;;;;;;;3.67;3.10;;;;;;;;;;4983159;28;20045;-77
2022/07/14 15:04:06;;;;;;;3.13;2.53;;;;;;;;;;4994014;28;20410;-76
2022/07/14 15:06:32;;;;;;;3.65;3.00;;;;;;;;;;4994584;28;20075;-77
2022/07/14 15:08:58;;;;;;;2.70;2.50;;;;;;;;;;4975651;28;20090;-77